Unionville, VA (22567)

2:26 PM EDT on September 01, 2015 (GMT -0400)
Fox Creek Farm (KS4Q) | | Change Station
CLOSE
Current Station
Personal Weather Station
Location: Unionville, VA
Elevation: 550 ft
Nearby Weather Stations

Elev 550 ft 38.26 °N, 77.96 °W | Updated 58 seconds ago

Partly Cloudy
Partly Cloudy
88.6 °F
Feels Like 91 °F
N
5.0
Wind Variable Wind from NE
Gusts 6.0 mph

Today
High -- | Low -- °F
--% Chance of Precip.
Yesterday
High -- | Low -- °F
Precip. -- in
6:41 AM 7:41 PM
Waning Gibbous, 87% visible
Pressure 30.08 in
Visibility 10.0 miles
Clouds Scattered Clouds 5500 ft
Scattered Clouds 6500 ft
Scattered Clouds 8000 ft
Heat Index 91 °F
Dew Point 65 °F
Humidity 46%
Rainfall 0.01 in
Snow Depth Not available.
UV 7 out of 12
Pollen 9.90 out of 12
Air Quality Not available.
Flu Activity Not available.
METAR KOMH 011815Z AUTO 03006KT 10SM SCT055 SCT065 SCT080 33/17 A3008 RMK AO2
Pressure 30.08 in
Visibility 10.0 miles
Clouds Scattered Clouds 5500 ft
Scattered Clouds 6500 ft
Scattered Clouds 8000 ft
Heat Index 91 °F
Dew Point 65 °F
Humidity 46%
Rainfall 0.01 in
Snow Depth Not available.
UV 7 out of 12
Pollen 9.90 out of 12
Air Quality Not available.
Flu Activity Not available.
METAR KOMH 011815Z AUTO 03006KT 10SM SCT055 SCT065 SCT080 33/17 A3008 RMK AO2

10-Day Weather Forecast

×

Almanac

Astronomy

Sep. 01, 2015 Rise Set
Actual Time
Civil Twilight
Nautical Twilight
Astronomical Twilight
Moon
Length of Visible Light
Length of Day
Tomorrow will be .
, % of the Moon is Illuminated

Today's Extremes

State Highs State Lows

Community

WunderPhotos

Upload Photos

1,851,592 photos uploaded!

WunderBlogs® & News

Nearby

Air Quality

  Air Quality AQ Index Pollutant
Not available.

Snow Depth

Station Depth Elevation

Earthquake Activity

City Distance Mag. Time & Date
Minimum magnitude displayed is 2.5.

Coastal Water Temperatures

Place Temperature

Stations

Nearby Weather Stations

Station Location Temp. Windchill Dew Point Humidity Wind Precip. Elev Updated Type